createdAt,value
2018-12-18T00:01:46.302Z,1.92
2018-12-18T00:04:19.144Z,1.98
2018-12-18T00:06:50.538Z,1.98
2018-12-18T00:09:19.866Z,1.84
2018-12-18T00:11:49.389Z,1.86
2018-12-18T00:14:19.008Z,1.84
2018-12-18T00:16:48.332Z,1.72
2018-12-18T00:19:18.023Z,1.79
2018-12-18T00:21:47.568Z,1.74
2018-12-18T00:24:16.893Z,1.73
2018-12-18T00:26:46.111Z,1.74
2018-12-18T00:29:15.357Z,1.73
2018-12-18T00:31:44.587Z,1.69
2018-12-18T00:34:14.921Z,1.67
2018-12-18T00:36:45.036Z,1.63
2018-12-18T00:39:15.749Z,1.64
2018-12-18T00:41:45.401Z,1.65
2018-12-18T00:44:14.741Z,1.50
2018-12-18T00:46:44.597Z,1.38
2018-12-18T00:49:13.945Z,1.33
2018-12-18T00:51:43.386Z,1.40
2018-12-18T00:54:13.073Z,1.52
2018-12-18T00:56:42.524Z,1.57
2018-12-18T00:59:11.910Z,1.60
2018-12-18T01:01:43.856Z,1.61
2018-12-18T01:04:13.181Z,1.57
2018-12-18T01:06:42.477Z,1.51
2018-12-18T01:09:12.602Z,1.49
2018-12-18T01:11:41.919Z,1.47
2018-12-18T01:14:12.163Z,1.43
2018-12-18T01:16:42.143Z,1.34
2018-12-18T01:19:11.463Z,1.27
2018-12-18T01:21:40.824Z,1.19
2018-12-18T01:24:10.788Z,1.11
2018-12-18T01:26:40.147Z,1.01
2018-12-18T01:29:09.361Z,0.93
2018-12-18T01:31:38.667Z,0.88
2018-12-18T01:34:08.761Z,0.84
2018-12-18T01:36:38.999Z,0.72
2018-12-18T01:39:09.183Z,0.73
2018-12-18T01:41:38.442Z,0.75
2018-12-18T01:44:07.718Z,0.74
2018-12-18T01:46:37.227Z,0.72
2018-12-18T01:49:06.886Z,0.67
2018-12-18T01:51:36.238Z,0.62
2018-12-18T01:54:05.464Z,0.57
2018-12-18T01:56:34.912Z,0.56
2018-12-18T01:59:04.628Z,0.51
2018-12-18T02:01:33.864Z,0.43
2018-12-18T02:04:06.141Z,0.26
2018-12-18T02:06:35.359Z,0.24
2018-12-18T02:09:07.617Z,0.13
2018-12-18T02:11:38.315Z,0.11
2018-12-18T02:14:07.912Z,0.13
2018-12-18T02:16:38.171Z,0.08
2018-12-18T02:19:07.364Z,0.07
2018-12-18T02:21:37.542Z,0.00
2018-12-18T02:24:07.903Z,-0.08
2018-12-18T02:26:37.897Z,-0.17
2018-12-18T02:29:07.289Z,-0.16
2018-12-18T02:31:36.500Z,-0.19
2018-12-18T02:34:13.478Z,-0.27
2018-12-18T02:36:37.798Z,-0.31
2018-12-18T02:39:08.238Z,-0.28
2018-12-18T02:41:38.149Z,-0.26
2018-12-18T02:44:07.480Z,-0.32
2018-12-18T02:46:36.863Z,-0.37
2018-12-18T02:49:06.319Z,-0.46
2018-12-18T02:51:35.756Z,-0.49
2018-12-18T02:54:05.299Z,-0.58
2018-12-18T02:56:35.435Z,-0.63
2018-12-18T02:59:06.040Z,-0.66
2018-12-18T03:01:35.395Z,-0.70
2018-12-18T03:04:05.133Z,-0.77
2018-12-18T03:06:34.451Z,-0.77
2018-12-18T03:09:05.464Z,-0.75
2018-12-18T03:11:36.877Z,-0.76
2018-12-18T03:14:06.865Z,-0.79
2018-12-18T03:16:36.224Z,-0.75
2018-12-18T03:19:06.259Z,-0.83
2018-12-18T03:21:35.695Z,-0.84
2018-12-18T03:24:06.919Z,-0.90
2018-12-18T03:26:36.968Z,-0.95
2018-12-18T03:29:06.195Z,-0.93
2018-12-18T03:31:38.097Z,-0.97
2018-12-18T03:34:07.511Z,-1.03
2018-12-18T03:36:36.794Z,-1.08
2018-12-18T03:39:07.231Z,-1.10
2018-12-18T03:41:37.925Z,-1.12
2018-12-18T03:44:07.327Z,-1.19
2018-12-18T03:46:36.726Z,-1.20
2018-12-18T03:49:06.971Z,-1.18
2018-12-18T03:51:36.541Z,-1.20
2018-12-18T03:54:06.137Z,-1.26
2018-12-18T03:56:35.569Z,-1.26
2018-12-18T03:59:06.468Z,-1.26
2018-12-18T04:01:35.758Z,-1.30
2018-12-18T04:04:05.928Z,-1.34
2018-12-18T04:06:35.196Z,-1.42
2018-12-18T04:09:07.434Z,-1.46
2018-12-18T04:11:42.378Z,-1.49
2018-12-18T04:14:11.731Z,-1.53
2018-12-18T04:16:41.171Z,-1.56
2018-12-18T04:19:11.120Z,-1.56
2018-12-18T04:21:41.236Z,-1.60
2018-12-18T04:24:10.578Z,-1.65
2018-12-18T04:26:40.220Z,-1.63
2018-12-18T04:29:09.784Z,-1.62
2018-12-18T04:31:39.174Z,-1.65
2018-12-18T04:34:08.335Z,-1.66
2018-12-18T04:36:38.711Z,-1.67
2018-12-18T04:39:08.720Z,-1.69
2018-12-18T04:41:38.024Z,-1.64
2018-12-18T04:44:08.131Z,-1.66
2018-12-18T04:46:38.305Z,-1.67
2018-12-18T04:49:07.643Z,-1.72
2018-12-18T04:51:36.933Z,-1.75
2018-12-18T04:54:07.809Z,-1.81
2018-12-18T04:56:37.245Z,-1.91
2018-12-18T04:59:06.502Z,-1.97
2018-12-18T05:01:35.886Z,-1.96
2018-12-18T05:04:05.886Z,-1.98
2018-12-18T05:06:36.014Z,-2.05
2018-12-18T05:09:09.218Z,-2.03
2018-12-18T05:11:39.511Z,-2.06
2018-12-18T05:14:09.580Z,-1.97
2018-12-18T05:16:39.660Z,-1.98
2018-12-18T05:19:09.914Z,-2.00
2018-12-18T05:21:40.118Z,-2.00
2018-12-18T05:24:09.555Z,-2.02
2018-12-18T05:26:39.134Z,-2.11
2018-12-18T05:29:08.673Z,-2.17
2018-12-18T05:31:39.014Z,-2.17
2018-12-18T05:34:08.339Z,-2.25
2018-12-18T05:36:39.201Z,-2.26
2018-12-18T05:39:08.672Z,-2.23
2018-12-18T05:41:37.946Z,-2.27
2018-12-18T05:44:09.535Z,-2.24
2018-12-18T05:46:39.129Z,-2.22
2018-12-18T05:49:08.577Z,-2.28
2018-12-18T05:51:38.072Z,-2.36
2018-12-18T05:54:08.683Z,-2.36
2018-12-18T05:56:38.721Z,-2.37
2018-12-18T05:59:08.105Z,-2.41
2018-12-18T06:01:37.647Z,-2.41
2018-12-18T06:04:07.291Z,-2.41
2018-12-18T06:06:36.710Z,-2.45
2018-12-18T06:09:07.905Z,-2.50
2018-12-18T06:11:37.362Z,-2.52
2018-12-18T06:14:07.432Z,-2.55
2018-12-18T06:16:37.591Z,-2.62
2018-12-18T06:19:08.195Z,-2.66
2018-12-18T06:21:37.618Z,-2.68
2018-12-18T06:24:07.251Z,-2.74
2018-12-18T06:26:36.663Z,-2.78
2018-12-18T06:29:06.032Z,-2.72
2018-12-18T06:31:35.545Z,-2.68
2018-12-18T06:34:05.207Z,-2.69
2018-12-18T06:36:35.416Z,-2.72
2018-12-18T06:39:07.296Z,-2.87
2018-12-18T06:41:36.598Z,-2.86
2018-12-18T06:44:06.621Z,-2.79
2018-12-18T06:46:36.175Z,-2.79
2018-12-18T06:49:05.525Z,-2.86
2018-12-18T06:51:35.201Z,-2.84
2018-12-18T06:54:04.791Z,-2.81
2018-12-18T06:56:34.273Z,-2.84
2018-12-18T06:59:05.126Z,-2.88
2018-12-18T07:01:34.445Z,-2.93
2018-12-18T07:04:03.918Z,-2.88
2018-12-18T07:06:33.770Z,-2.81
2018-12-18T07:09:05.885Z,-2.84
2018-12-18T07:11:37.037Z,-2.85
2018-12-18T07:14:07.256Z,-2.87
2018-12-18T07:16:37.477Z,-2.87
2018-12-18T07:19:07.561Z,-2.86
2018-12-18T07:21:37.026Z,-2.87
2018-12-18T07:24:06.487Z,-2.84
2018-12-18T07:26:35.986Z,-2.84
2018-12-18T07:29:05.521Z,-2.86
2018-12-18T07:31:34.806Z,-2.81
2018-12-18T07:34:05.062Z,-2.78
2018-12-18T07:36:34.411Z,-2.72
2018-12-18T07:39:05.947Z,-2.70
2018-12-18T07:41:35.221Z,-2.69
2018-12-18T07:44:05.887Z,-2.63
2018-12-18T07:46:35.138Z,-2.64
2018-12-18T07:49:04.827Z,-2.66
2018-12-18T07:51:35.408Z,-2.62
2018-12-18T07:54:05.622Z,-2.59
2018-12-18T07:56:34.982Z,-2.67
2018-12-18T07:59:04.577Z,-2.63
2018-12-18T08:01:34.342Z,-2.61
2018-12-18T08:04:04.263Z,-2.55
2018-12-18T08:06:34.104Z,-2.45
2018-12-18T08:09:05.856Z,-2.29
2018-12-18T08:11:36.096Z,-2.18
2018-12-18T08:14:05.794Z,-1.97
2018-12-18T08:16:36.627Z,-1.60
2018-12-18T08:19:06.846Z,-1.39
2018-12-18T08:21:36.927Z,-1.54
2018-12-18T08:24:07.113Z,-1.34
2018-12-18T08:26:37.141Z,-0.97
2018-12-18T08:29:06.654Z,-0.04
2018-12-18T08:31:36.832Z,0.36
2018-12-18T08:34:06.767Z,0.80
2018-12-18T08:36:36.206Z,0.91
2018-12-18T08:39:09.142Z,1.29
2018-12-18T08:41:39.756Z,1.56
2018-12-18T08:44:09.900Z,1.73
2018-12-18T08:46:39.815Z,2.13
2018-12-18T08:49:09.979Z,2.58
2018-12-18T08:51:40.188Z,2.93
2018-12-18T08:54:10.071Z,3.45
2018-12-18T08:56:39.916Z,4.31
2018-12-18T08:59:09.773Z,4.98
2018-12-18T09:01:40.142Z,5.64
2018-12-18T09:04:10.428Z,5.49
2018-12-18T09:06:42.538Z,5.23
2018-12-18T09:09:12.586Z,5.73
2018-12-18T09:11:42.767Z,5.66
2018-12-18T09:14:14.014Z,5.73
2018-12-18T09:16:49.541Z,5.56
2018-12-18T09:19:19.146Z,5.99
2018-12-18T09:21:48.963Z,5.74
2018-12-18T09:24:18.742Z,5.92
2018-12-18T09:26:48.887Z,5.86
2018-12-18T09:29:18.977Z,6.91
2018-12-18T09:31:48.736Z,7.98
2018-12-18T09:34:18.439Z,9.19
2018-12-18T09:36:48.706Z,9.66
2018-12-18T09:39:19.670Z,10.94
2018-12-18T09:41:51.087Z,11.33
2018-12-18T09:44:21.933Z,11.05
2018-12-18T09:46:51.314Z,10.40
2018-12-18T09:49:20.842Z,9.96
2018-12-18T09:51:50.741Z,9.19
2018-12-18T09:54:20.031Z,8.63
2018-12-18T09:56:51.688Z,8.24
2018-12-18T09:59:21.345Z,8.12
2018-12-18T10:01:50.678Z,7.37
2018-12-18T10:04:20.712Z,7.86
2018-12-18T10:06:50.862Z,8.96
2018-12-18T10:09:21.109Z,9.90
2018-12-18T10:11:51.393Z,9.25
2018-12-18T10:14:21.487Z,10.17
2018-12-18T10:16:51.675Z,11.29
2018-12-18T10:19:21.082Z,10.84
2018-12-18T10:21:50.667Z,10.92
2018-12-18T10:24:20.348Z,10.55
2018-12-18T10:26:49.798Z,11.50
2018-12-18T10:29:19.371Z,10.69
2018-12-18T10:31:48.981Z,10.04
2018-12-18T10:34:18.587Z,9.24
2018-12-18T10:36:48.529Z,9.77
2018-12-18T10:39:18.588Z,9.55
2018-12-18T10:41:48.126Z,10.67
2018-12-18T10:44:17.705Z,11.97
2018-12-18T10:46:47.258Z,12.49
2018-12-18T10:49:16.568Z,13.49
2018-12-18T10:51:45.797Z,14.04
2018-12-18T10:54:15.787Z,13.91
2018-12-18T10:56:46.312Z,14.59
2018-12-18T10:59:16.344Z,14.92
2018-12-18T11:03:12.063Z,14.52
2018-12-18T11:05:42.682Z,14.11
2018-12-18T11:08:12.895Z,13.83
2018-12-18T11:10:43.021Z,12.90
2018-12-18T11:13:19.153Z,12.83
2018-12-18T11:15:49.359Z,12.36
2018-12-18T11:18:19.422Z,12.83
2018-12-18T11:20:49.666Z,13.31
2018-12-18T11:23:20.194Z,13.51
2018-12-18T11:25:50.927Z,14.15
2018-12-18T11:28:21.202Z,14.57
2018-12-18T11:30:51.556Z,14.30
2018-12-18T11:33:21.592Z,13.88
2018-12-18T11:35:52.012Z,15.15
2018-12-18T11:38:22.025Z,16.19
2018-12-18T11:40:52.002Z,16.24
2018-12-18T11:43:22.859Z,15.55
2018-12-18T11:45:52.412Z,17.11
2018-12-18T11:48:22.863Z,17.15
2018-12-18T11:50:52.985Z,17.22
2018-12-18T11:53:22.703Z,16.95
2018-12-18T11:55:52.329Z,18.20
2018-12-18T11:58:21.733Z,17.96
2018-12-18T12:00:53.603Z,18.03
2018-12-18T12:03:22.900Z,18.77
2018-12-18T12:05:54.439Z,17.58
2018-12-18T12:08:24.356Z,15.84
2018-12-18T12:10:53.736Z,14.75
2018-12-18T12:13:23.769Z,16.00
2018-12-18T12:15:53.117Z,16.07
2018-12-18T12:18:22.678Z,15.68
2018-12-18T12:20:52.500Z,15.49
2018-12-18T12:23:22.248Z,14.50
2018-12-18T12:25:51.746Z,14.32
2018-12-18T12:28:21.982Z,13.96
2018-12-18T12:30:51.274Z,13.90
2018-12-18T12:33:20.772Z,13.95
2018-12-18T12:35:50.599Z,14.26
2018-12-18T12:38:20.028Z,14.41
2018-12-18T12:40:49.530Z,14.11
2018-12-18T12:43:19.152Z,14.12
2018-12-18T12:45:48.678Z,13.66
2018-12-18T12:48:19.647Z,13.42
2018-12-18T12:50:49.022Z,13.74
2018-12-18T12:53:19.007Z,13.51
2018-12-18T12:55:49.217Z,13.34
2018-12-18T12:58:18.673Z,13.37
2018-12-18T13:00:48.772Z,12.09
2018-12-18T13:03:18.928Z,12.26
2018-12-18T13:05:49.036Z,12.41
2018-12-18T13:08:18.407Z,12.36
2018-12-18T13:10:48.713Z,12.10
2018-12-18T13:13:18.167Z,11.89
2018-12-18T13:15:47.546Z,11.68
2018-12-18T13:19:31.191Z,11.10
2018-12-18T13:22:00.707Z,11.26
2018-12-18T13:24:30.688Z,11.17
2018-12-18T13:27:00.306Z,10.78
2018-12-18T13:29:30.386Z,10.77
2018-12-18T13:32:00.268Z,10.85
2018-12-18T13:34:29.626Z,10.41
2018-12-18T13:36:59.065Z,10.39
2018-12-18T13:39:28.743Z,10.78
2018-12-18T13:41:58.822Z,10.68
2018-12-18T13:44:28.409Z,10.61
2018-12-18T13:46:57.866Z,10.63
2018-12-18T13:49:27.420Z,9.98
2018-12-18T13:51:56.867Z,9.30
2018-12-18T13:54:27.132Z,9.45
2018-12-18T13:56:56.627Z,9.47
2018-12-18T13:59:27.216Z,9.44
2018-12-18T14:01:56.798Z,9.47
2018-12-18T14:04:27.058Z,9.33
2018-12-18T14:06:56.347Z,8.71
2018-12-18T14:09:25.536Z,8.94
2018-12-18T14:11:55.087Z,8.71
2018-12-18T14:14:25.846Z,8.05
2018-12-18T14:16:55.270Z,8.35
2018-12-18T14:19:24.821Z,8.36
2018-12-18T14:21:54.473Z,8.25
2018-12-18T14:24:24.036Z,8.08
2018-12-18T14:26:53.525Z,7.95
2018-12-18T14:29:23.207Z,7.84
2018-12-18T14:31:52.636Z,7.74
2018-12-18T14:34:22.211Z,7.56
2018-12-18T14:36:56.238Z,7.31
2018-12-18T14:39:23.192Z,7.34
2018-12-18T14:41:52.762Z,7.05
2018-12-18T14:44:24.837Z,6.84
2018-12-18T14:46:54.611Z,6.62
2018-12-18T14:49:23.990Z,6.63
2018-12-18T14:51:54.775Z,6.43
2018-12-18T14:54:24.398Z,6.43
2018-12-18T14:56:54.351Z,6.29
2018-12-18T14:59:24.168Z,6.16
2018-12-18T15:01:53.861Z,6.05
2018-12-18T15:04:23.091Z,5.88
2018-12-18T15:06:53.161Z,5.67
2018-12-18T15:09:22.522Z,5.26
2018-12-18T15:11:52.424Z,5.13
2018-12-18T15:14:21.985Z,5.04
2018-12-18T15:16:52.229Z,4.55
2018-12-18T15:19:22.339Z,4.56
2018-12-18T15:21:52.073Z,4.52
2018-12-18T15:24:22.617Z,4.47
2018-12-18T15:26:52.962Z,4.28
2018-12-18T15:29:22.249Z,4.19
2018-12-18T15:31:52.139Z,4.05
2018-12-18T15:34:22.443Z,3.93
2018-12-18T15:36:51.917Z,3.80
2018-12-18T15:39:21.793Z,3.62
2018-12-18T15:41:51.169Z,3.54
2018-12-18T15:44:21.379Z,3.34
2018-12-18T15:46:51.721Z,3.18
2018-12-18T15:49:21.659Z,3.15
2018-12-18T15:51:51.001Z,2.99
2018-12-18T15:54:20.995Z,2.90
2018-12-18T15:56:50.498Z,2.77
2018-12-18T15:59:20.480Z,2.80
2018-12-18T16:01:50.883Z,2.68
2018-12-18T16:04:21.434Z,2.56
2018-12-18T16:06:50.863Z,2.45
2018-12-18T16:09:20.393Z,2.26
2018-12-18T16:11:50.126Z,2.23
2018-12-18T16:14:19.763Z,2.21
2018-12-18T16:16:49.519Z,2.11
2018-12-18T16:19:19.488Z,1.98
2018-12-18T16:21:50.002Z,1.97
2018-12-18T16:24:19.844Z,1.83
2018-12-18T16:26:49.519Z,1.75
2018-12-18T16:29:18.896Z,1.69
2018-12-18T16:31:48.389Z,1.72
2018-12-18T16:34:18.799Z,1.61
2018-12-18T16:36:50.600Z,1.53
2018-12-18T16:39:19.918Z,1.40
2018-12-18T16:41:49.964Z,1.30
2018-12-18T16:44:19.505Z,1.20
2018-12-18T16:46:50.067Z,1.15
2018-12-18T16:49:19.514Z,1.09
2018-12-18T16:51:49.127Z,0.99
2018-12-18T16:54:19.045Z,1.02
2018-12-18T16:56:48.825Z,0.91
2018-12-18T16:59:18.480Z,0.83
2018-12-18T17:01:48.679Z,0.76
2018-12-18T17:04:18.965Z,0.65
2018-12-18T17:06:49.012Z,0.53
2018-12-18T17:09:19.315Z,0.48
2018-12-18T17:11:49.289Z,0.56
2018-12-18T17:14:18.824Z,0.53
2018-12-18T17:16:48.435Z,0.53
2018-12-18T17:19:18.843Z,0.40
2018-12-18T17:21:48.331Z,0.40
2018-12-18T17:24:17.700Z,0.28
2018-12-18T17:26:47.646Z,0.19
2018-12-18T17:29:17.926Z,-0.03
2018-12-18T17:31:48.240Z,-0.06
2018-12-18T17:34:18.211Z,-0.05
2018-12-18T17:36:47.616Z,-0.14
2018-12-18T17:39:17.230Z,-0.19
2018-12-18T17:41:46.933Z,-0.27
2018-12-18T17:44:16.406Z,-0.24
2018-12-18T17:46:46.282Z,-0.35
2018-12-18T17:49:15.825Z,-0.42
2018-12-18T17:51:45.915Z,-0.37
2018-12-18T17:54:15.840Z,-0.53
2018-12-18T17:56:45.319Z,-0.67
2018-12-18T17:59:15.032Z,-0.68
2018-12-18T18:01:44.525Z,-0.71
2018-12-18T18:04:13.934Z,-0.66
2018-12-18T18:06:43.945Z,-0.63
2018-12-18T18:09:14.166Z,-0.64
2018-12-18T18:11:43.586Z,-0.78
2018-12-18T18:14:13.235Z,-0.80
2018-12-18T18:16:43.866Z,-0.90
2018-12-18T18:19:14.042Z,-0.94
2018-12-18T18:21:44.457Z,-0.91
2018-12-18T18:24:14.539Z,-0.95
2018-12-18T18:26:44.552Z,-1.05
2018-12-18T18:29:14.952Z,-1.06
2018-12-18T18:31:45.031Z,-1.16
2018-12-18T18:34:14.553Z,-1.26
2018-12-18T18:36:44.458Z,-1.30
2018-12-18T18:39:15.856Z,-1.32
2018-12-18T18:41:45.819Z,-1.25
2018-12-18T18:44:15.985Z,-1.25
2018-12-18T18:46:45.499Z,-1.27
2018-12-18T18:49:15.410Z,-1.31
2018-12-18T18:51:45.720Z,-1.36
2018-12-18T18:54:15.659Z,-1.33
2018-12-18T18:56:45.263Z,-1.43
2018-12-18T18:59:15.246Z,-1.55
2018-12-18T19:01:45.636Z,-1.60
2018-12-18T19:04:15.664Z,-1.65
2018-12-18T19:06:45.726Z,-1.72
2018-12-18T19:09:15.297Z,-1.71
2018-12-18T19:11:45.155Z,-1.76
2018-12-18T19:14:15.842Z,-1.77
2018-12-18T19:16:45.630Z,-1.69
2018-12-18T19:19:15.061Z,-1.72
2018-12-18T19:21:45.014Z,-1.78
2018-12-18T19:24:15.261Z,-1.90
2018-12-18T19:26:44.650Z,-1.91
2018-12-18T19:29:14.290Z,-1.85
2018-12-18T19:31:43.959Z,-1.82
2018-12-18T19:34:13.435Z,-1.84
2018-12-18T19:36:43.881Z,-2.04
2018-12-18T19:39:13.864Z,-2.01
2018-12-18T19:41:43.717Z,-1.94
2018-12-18T19:44:13.374Z,-1.96
2018-12-18T19:46:42.987Z,-1.95
2018-12-18T19:49:12.594Z,-1.86
2018-12-18T19:51:42.765Z,-1.89
2018-12-18T19:54:12.800Z,-1.93
2018-12-18T19:56:42.333Z,-1.97
2018-12-18T19:59:12.524Z,-1.98
2018-12-18T20:01:42.389Z,-2.08
2018-12-18T20:04:12.882Z,-2.09
2018-12-18T20:06:43.380Z,-2.10
2018-12-18T20:09:12.986Z,-2.06
2018-12-18T20:11:43.339Z,-2.08
2018-12-18T20:14:13.358Z,-2.22
2018-12-18T20:16:42.856Z,-2.19
2018-12-18T20:19:12.734Z,-2.24
2018-12-18T20:21:42.905Z,-2.24
2018-12-18T20:24:13.598Z,-2.30
2018-12-18T20:26:43.424Z,-2.36
2018-12-18T20:29:12.881Z,-2.46
2018-12-18T20:31:42.761Z,-2.50
2018-12-18T20:34:12.242Z,-2.50
2018-12-18T20:36:42.529Z,-2.42
2018-12-18T20:39:13.534Z,-2.47
2018-12-18T20:41:44.279Z,-2.56
2018-12-18T20:44:13.814Z,-2.57
2018-12-18T20:46:44.107Z,-2.54
2018-12-18T20:49:14.122Z,-2.48
2018-12-18T20:51:44.460Z,-2.57
2018-12-18T20:54:14.610Z,-2.63
2018-12-18T20:56:44.335Z,-2.70
2018-12-18T20:59:14.016Z,-2.73
2018-12-18T21:04:27.932Z,-2.89
2018-12-18T21:06:58.842Z,-2.90
2018-12-18T21:09:28.454Z,-2.85
2018-12-18T21:11:58.783Z,-2.80
2018-12-18T21:14:29.010Z,-2.76
2018-12-18T21:16:58.528Z,-2.80
2018-12-18T21:19:30.369Z,-2.84
2018-12-18T21:22:00.031Z,-2.84
2018-12-18T21:24:29.617Z,-2.78
2018-12-18T21:27:00.280Z,-2.78
2018-12-18T21:29:30.345Z,-2.82
2018-12-18T21:32:00.315Z,-2.82
2018-12-18T21:34:30.082Z,-2.84
2018-12-18T21:37:00.975Z,-2.88
2018-12-18T21:39:30.739Z,-2.81
2018-12-18T21:42:00.201Z,-2.86
2018-12-18T21:44:30.022Z,-2.89
2018-12-18T21:47:00.342Z,-2.89
2018-12-18T21:49:30.066Z,-2.87
2018-12-18T21:51:59.905Z,-2.92
2018-12-18T21:54:29.289Z,-2.96
2018-12-18T21:56:59.042Z,-3.04
2018-12-18T21:59:28.654Z,-3.09
2018-12-18T22:01:58.357Z,-3.13
2018-12-18T22:04:28.989Z,-3.22
2018-12-18T22:06:59.126Z,-3.18
2018-12-18T22:09:28.693Z,-3.12
2018-12-18T22:11:58.406Z,-3.12
2018-12-18T22:14:28.671Z,-3.19
2018-12-18T22:16:58.130Z,-3.12
2018-12-18T22:19:27.744Z,-3.12
2018-12-18T22:21:57.330Z,-3.13
2018-12-18T22:24:26.826Z,-3.17
2018-12-18T22:26:56.495Z,-3.25
2018-12-18T22:29:25.925Z,-3.28
2018-12-18T22:31:56.135Z,-3.17
2018-12-18T22:34:25.706Z,-3.25
2018-12-18T22:36:55.466Z,-3.29
2018-12-18T22:39:24.850Z,-3.37
2018-12-18T22:41:55.031Z,-3.37
2018-12-18T22:44:24.418Z,-3.29
2018-12-18T22:46:53.990Z,-3.31
2018-12-18T22:49:23.506Z,-3.35
2018-12-18T22:56:41.534Z,-3.47
2018-12-18T22:59:11.085Z,-3.40
2018-12-18T23:01:47.377Z,-3.34
2018-12-18T23:04:17.954Z,-3.33
2018-12-18T23:06:47.336Z,-3.32
2018-12-18T23:09:17.400Z,-3.37
2018-12-18T23:11:46.971Z,-3.47
2018-12-18T23:14:17.813Z,-3.34
2018-12-18T23:16:47.131Z,-3.35
2018-12-18T23:19:17.103Z,-3.37
2018-12-18T23:21:47.399Z,-3.33
2018-12-18T23:24:16.925Z,-3.39
2018-12-18T23:26:46.756Z,-3.37
2018-12-18T23:29:16.205Z,-3.35
2018-12-18T23:31:46.393Z,-3.40
2018-12-18T23:34:17.990Z,-3.38
2018-12-18T23:36:47.590Z,-3.37
2018-12-18T23:39:17.924Z,-3.36
2018-12-18T23:41:47.643Z,-3.36
2018-12-18T23:44:17.409Z,-3.37
2018-12-18T23:46:47.626Z,-3.41
2018-12-18T23:49:17.241Z,-3.34
2018-12-18T23:51:46.793Z,-3.35
2018-12-18T23:54:16.086Z,-3.36
2018-12-18T23:56:45.538Z,-3.37
2018-12-18T23:59:15.416Z,-3.34
